Flight Track Log - Related Links

Times and Time Zones

All times are in EST time to prevent confusion due to time zone crossing. See the SWA17 flight status page for this flight to view local times or setup timezone preferences in your user account.


Time Position Orientation Groundspeed Altitude Reporting Facility
EST Latitude Longitude Course Direction KTS MPH feet Rate Location/Type
Wed 02:11:25 PM 36.0758 -115.1764 321° Northwest 166 191 3,400  Level Los Angeles Center
Wed 02:12:44 PM 36.0494 -115.2647 250° West 264 304 5,700 1,748 Climbing Los Angeles Center
Wed 02:13:08 PM 36.0208 -115.2769 199° South 281 323 6,400 1,636 Climbing Los Angeles Center
Wed 02:13:39 PM 35.9792 -115.2983 203° Southwest 302 348 7,200 2,226 Climbing Los Angeles Center
Wed 02:14:10 PM 35.9506 -115.3267 219° Southwest 294 338 8,700 3,222 Climbing Los Angeles Center
Wed 02:14:33 PM 35.9253 -115.3586 226° Southwest 303 349 10,100 2,226 Climbing Los Angeles Center
Wed 02:15:12 PM 35.8911 -115.4125 232° Southwest 307 353 11,000 540 Climbing Los Angeles Center
Wed 02:16:13 PM 35.8889 -115.5236 269° West 326 375 11,000  Level Los Angeles Center
Wed 02:17:00 PM 36.2813 -115.2574 321° Northwest  Level Estimated
Wed 02:17:15 PM 35.8906 -115.6486 271° West 361 415 11,000  Level Los Angeles Center
Wed 02:18:17 PM 35.8931 -115.7878 271° West 376 433 14,100 3,000 Climbing Los Angeles Center
Wed 02:19:19 PM 35.8961 -115.9192 272° West 383 441 17,200 2,661 Climbing Los Angeles Center
Wed 02:20:21 PM 35.9531 -116.0339 302° West 380 437 19,600 2,177 Climbing Los Angeles Center
Wed 02:21:23 PM 36.0325 -116.1269 317° Northwest 391 450 21,700 1,839 Climbing Los Angeles Center
Wed 02:22:25 PM 36.1075 -116.2133 317° Northwest 407 468 23,400 1,805 Climbing Los Angeles Center
Wed 02:23:26 PM 36.1917 -116.3111 317° Northwest 414 476 25,400 1,951 Climbing Los Angeles Center
Wed 02:24:28 PM 36.2969 -116.4322 317° Northwest 432 497 27,400 1,694 Climbing Los Angeles Center
Wed 02:25:30 PM 36.3844 -116.5347 317° Northwest 435 501 28,900 1,694 Climbing Los Angeles Center
Wed 02:26:32 PM 36.4725 -116.6381 317° Northwest 437 503 30,900 1,951 Climbing Los Angeles Center
Wed 02:27:33 PM 36.5689 -116.7500 317° Northwest 426 490 32,900 1,707 Climbing Los Angeles Center
Wed 02:28:35 PM 36.6681 -116.8258 328° Northwest 417 480 34,400 1,210 Climbing Los Angeles Center
Wed 02:29:37 PM 36.7547 -116.8900 329° Northwest 415 478 35,400 774 Climbing Los Angeles Center
Wed 02:30:39 PM 36.8661 -116.9764 328° Northwest 416 479 36,000 293 Climbing Los Angeles Center
Wed 02:31:40 PM 36.9642 -117.0522 328° Northwest 414 476 36,000  Level Los Angeles Center
Wed 02:32:42 PM 37.0625 -117.1269 329° Northwest 412 474 36,000  Level Los Angeles Center
Wed 02:33:44 PM 37.1611 -117.2022 329° Northwest 413 475 36,000  Level Los Angeles Center
Wed 02:34:45 PM 37.2597 -117.2789 328° Northwest 414 476 36,000  Level Los Angeles Center
Wed 02:35:47 PM 37.3828 -117.3625 332° Northwest 414 476 36,000  Level Los Angeles Center
Wed 02:36:26 PM 37.4453 -117.4047 332° Northwest 419 482 36,000  Level Oakland Center
Wed 02:37:27 PM 37.5481 -117.4742 332° Northwest 419 482 36,000  Level Oakland Center
Wed 02:38:28 PM 37.6511 -117.5397 333° Northwest 415 478 36,000  Level Oakland Center
Wed 02:39:29 PM 37.7553 -117.6072 333° Northwest 418 481 36,000  Level Oakland Center
Wed 02:40:30 PM 37.8594 -117.6733 333° Northwest 416 479 36,000  Level Oakland Center
Wed 02:41:31 PM 37.9639 -117.7428 332° Northwest 418 481 36,000  Level Oakland Center
Wed 02:42:32 PM 38.0631 -117.8214 328° Northwest 419 482 36,000  Level Oakland Center
Wed 02:43:34 PM 38.1717 -117.8792 337° Northwest 421 484 36,000  Level Oakland Center
Wed 02:44:35 PM 38.2803 -117.9386 337° Northwest 422 486 36,000  Level Oakland Center
Wed 02:45:36 PM 38.3869 -117.9975 337° Northwest 417 480 36,000  Level Oakland Center
Wed 02:46:37 PM 38.4953 -118.0561 337° Northwest 420 483 36,000  Level Oakland Center
Wed 02:47:38 PM 38.5972 -118.1125 337° Northwest 415 478 36,000  Level Oakland Center
Wed 02:48:39 PM 38.7228 -118.1836 336° Northwest 413 475 36,000  Level Oakland Center
Wed 02:49:40 PM 38.8281 -118.2411 337° Northwest 412 474 36,000  Level Oakland Center
Wed 02:50:41 PM 38.9333 -118.3008 336° Northwest 412 474 36,000  Level Oakland Center
Wed 02:51:42 PM 39.0383 -118.3600 336° Northwest 413 475 36,000  Level Oakland Center
Wed 02:52:43 PM 39.1422 -118.4189 336° Northwest 410 472 36,000  Level Oakland Center
Wed 02:53:44 PM 39.2528 -118.4819 336° Northwest 409 471 36,000  Level Oakland Center
Wed 02:54:45 PM 39.3561 -118.5394 337° Northwest 406 467 36,000  Level Oakland Center
Wed 02:55:46 PM 39.4617 -118.5981 337° Northwest 410 472 36,000  Level Oakland Center
Wed 02:56:47 PM 39.5719 -118.6639 335° Northwest 407 468 36,000  Level Oakland Center
Wed 02:57:48 PM 39.6756 -118.7222 337° Northwest 407 468 36,000  Level Oakland Center
Wed 02:58:49 PM 39.7800 -118.7831 336° Northwest 412 474 36,000  Level Oakland Center
Wed 02:59:50 PM 39.8853 -118.8428 336° Northwest 413 475 36,000  Level Oakland Center
Wed 03:00:51 PM 39.9906 -118.9044 336° Northwest 415 478 36,000  Level Oakland Center
Wed 03:01:52 PM 40.0969 -118.9664 336° Northwest 417 480 36,000  Level Oakland Center
Wed 03:02:53 PM 40.2031 -119.0286 336° Northwest 418 481 36,000  Level Oakland Center
Wed 03:03:54 PM 40.3078 -119.0894 336° Northwest 414 476 36,000  Level Oakland Center
Wed 03:04:55 PM 40.4119 -119.1506 336° Northwest 410 472 36,000  Level Oakland Center
Wed 03:05:56 PM 40.5175 -119.2131 336° Northwest 414 476 36,000  Level Oakland Center
Wed 03:06:57 PM 40.6208 -119.2725 336° Northwest 408 470 36,000  Level Oakland Center
Wed 03:07:59 PM 40.7467 -119.3492 335° Northwest 414 476 36,000  Level Oakland Center
Wed 03:09:00 PM 40.8389 -119.4008 337° Northwest 413 475 36,000  Level Oakland Center
Wed 03:10:01 PM 40.9564 -119.4719 335° Northwest 413 475 36,000  Level Oakland Center
Wed 03:11:02 PM 41.0556 -119.5319 335° Northwest 412 474 36,000  Level Oakland Center
Wed 03:12:03 PM 41.1511 -119.5942 334° Northwest 411 473 36,000  Level Oakland Center
Wed 03:13:04 PM 41.2564 -119.6553 336° Northwest 413 475 36,000  Level Oakland Center
Wed 03:14:05 PM 41.3600 -119.7178 336° Northwest 412 474 36,000  Level Oakland Center
Wed 03:15:09 PM 41.4878 -119.7922 336° Northwest 411 473 36,000  Level Seattle Center
Wed 03:16:09 PM 41.5897 -119.8553 335° Northwest 407 468 36,000  Level Seattle Center
Wed 03:17:10 PM 41.6917 -119.9169 336° Northwest 403 464 36,000  Level Seattle Center
Wed 03:18:11 PM 41.7936 -119.9792 336° Northwest 404 465 36,000  Level Seattle Center
Wed 03:19:11 PM 41.8922 -120.0411 335° Northwest 398 458 36,000  Level Seattle Center
Wed 03:20:12 PM 41.9906 -120.1019 335° Northwest 393 452 36,000  Level Seattle Center
Wed 03:21:13 PM 42.0889 -120.1639 335° Northwest 391 450 36,000  Level Seattle Center
Wed 03:22:13 PM 42.1881 -120.2258 335° Northwest 394 453 36,000  Level Seattle Center
Wed 03:23:14 PM 42.2878 -120.2881 335° Northwest 396 456 36,000  Level Seattle Center
Wed 03:24:15 PM 42.3886 -120.3511 335° Northwest 399 459 36,000  Level Seattle Center
Wed 03:25:16 PM 42.4892 -120.4125 336° Northwest 397 457 36,000  Level Seattle Center
Wed 03:26:16 PM 42.6089 -120.4892 335° Northwest 398 458 36,000  Level Seattle Center
Wed 03:27:17 PM 42.7103 -120.5531 335° Northwest 402 463 36,000  Level Seattle Center
Wed 03:28:18 PM 42.8108 -120.6169 335° Northwest 402 463 36,000  Level Seattle Center
Wed 03:29:18 PM 42.9128 -120.6833 335° Northwest 404 465 36,000  Level Seattle Center
Wed 03:30:19 PM 43.0158 -120.7486 335° Northwest 408 470 36,000  Level Seattle Center
Wed 03:31:20 PM 43.1203 -120.8150 335° Northwest 412 474 36,000  Level Seattle Center
Wed 03:32:21 PM 43.2250 -120.8831 335° Northwest 415 478 36,000  Level Seattle Center
Wed 03:33:21 PM 43.3294 -120.9514 335° Northwest 418 481 36,000  Level Seattle Center
Wed 03:34:22 PM 43.4347 -121.0172 336° Northwest 417 480 36,000  Level Seattle Center
Wed 03:35:23 PM 43.5392 -121.0864 334° Northwest 418 481 36,000  Level Seattle Center
Wed 03:36:23 PM 43.6439 -121.1572 334° Northwest 420 483 36,000 -149 Level Seattle Center
Wed 03:37:24 PM 43.7469 -121.2253 335° Northwest 413 475 35,700 -689 Descending Seattle Center
Wed 03:38:25 PM 43.8619 -121.2986 335° Northwest 411 473 34,600 -836 Descending Seattle Center
Wed 03:39:26 PM 43.9669 -121.3681 335° Northwest 417 480 34,000 -298 Descending Seattle Center
Wed 03:40:26 PM 44.0678 -121.4356 334° Northwest 406 467 34,000  Level Seattle Center
Wed 03:41:27 PM 44.1697 -121.5028 335° Northwest 405 466 34,000  Level Seattle Center
Wed 03:42:28 PM 44.2692 -121.5703 334° Northwest 400 460 34,000  Level Seattle Center
Wed 03:43:29 PM 44.3731 -121.6403 334° Northwest 396 456 34,000  Level Seattle Center
Wed 03:44:29 PM 44.4742 -121.7078 335° Northwest 398 458 34,000  Level Seattle Center
Wed 03:45:30 PM 44.5753 -121.7758 334° Northwest 400 460 34,000  Level Seattle Center
Wed 03:46:31 PM 44.6756 -121.8436 334° Northwest 400 460 34,000  Level Seattle Center
Wed 03:47:31 PM 44.7736 -121.9111 334° Northwest 393 452 34,000  Level Seattle Center
Wed 03:48:32 PM 44.8711 -121.9789 334° Northwest 390 449 34,000  Level Seattle Center
Wed 03:49:33 PM 44.9700 -122.0481 334° Northwest 387 445 34,000  Level Seattle Center
Wed 03:50:33 PM 45.0667 -122.1156 334° Northwest 389 448 34,000  Level Seattle Center
Wed 03:51:34 PM 45.1639 -122.1822 334° Northwest 390 449 34,000  Level Seattle Center
Wed 03:52:35 PM 45.2625 -122.2486 335° Northwest 393 452 34,000  Level Seattle Center
Wed 03:53:35 PM 45.3575 -122.3175 333° Northwest 388 447 34,000  Level Seattle Center
Wed 03:54:36 PM 45.4547 -122.3833 335° Northwest 389 448 34,000  Level Seattle Center
Wed 03:55:37 PM 45.5511 -122.4525 333° Northwest 389 448 34,000  Level Seattle Center
Wed 03:56:38 PM 45.6500 -122.5214 334° Northwest 394 453 34,000  Level Seattle Center
Wed 03:57:38 PM 45.7481 -122.5892 334° Northwest 395 455 34,000  Level Seattle Center
Wed 03:58:39 PM 45.8578 -122.6172 350° North 401 461 34,000 -295 Level Seattle Center
Wed 03:59:40 PM 45.9886 -122.6517 350° North 401 461 33,400 -1,488 Descending Seattle Center
Wed 04:00:40 PM 46.0950 -122.6758 351° North 392 451 31,000 -2,182 Descending Seattle Center
Wed 04:01:41 PM 46.1989 -122.6983 351° North 384 442 29,000 -1,869 Descending Seattle Center
Wed 04:02:42 PM 46.2889 -122.7161 352° North 368 423 27,200 -1,835 Descending Seattle Center
Wed 04:03:42 PM 46.3883 -122.7272 356° North 364 419 25,300 -1,884 Descending Seattle Center
Wed 04:04:43 PM 46.4903 -122.7297 359° North 367 422 23,400 -1,884 Descending Seattle Center
Wed 04:05:43 PM 46.5894 -122.7336 358° North 359 413 21,500 -2,020 Descending Seattle Center
Wed 04:06:21 PM 46.6681 -122.7364 359° North 351 404 20,100 -1,770 Descending Seattle Center
Wed 04:06:44 PM 46.6861 -122.7386 355° North 350 403 19,700 -1,701 Descending Seattle Center
Wed 04:07:28 PM 46.7703 -122.7367 North 339 390 18,200 -1,672 Descending Seattle Center
Wed 04:07:45 PM 46.7992 -122.7278 12° North 342 394 18,000 -787 Descending Seattle Center
Wed 04:08:29 PM 46.8511 -122.6611 41° Northeast 352 405 17,400 -1,400 Descending Seattle Center
Wed 04:08:45 PM 46.8742 -122.6325 40° Northeast 368 423 16,600 -2,100 Descending Seattle Center
Wed 04:09:29 PM 46.9289 -122.5736 36° Northeast 358 412 15,300 -1,869 Descending Seattle Center
Wed 04:09:46 PM 46.9550 -122.5519 30° Northeast 356 410 14,700 -1,869 Descending Seattle Center
Wed 04:10:30 PM 47.0233 -122.5258 15° North 333 383 13,400 -1,672 Descending Seattle Center
Wed 04:10:47 PM 47.0450 -122.5150 19° North 339 390 13,000 -1,700 Descending Seattle Center
Wed 04:11:30 PM 47.1108 -122.4944 12° North 321 369 11,700 -1,700 Descending Seattle Center
Wed 04:11:47 PM 47.1325 -122.4886 10° North 325 374 11,300 -1,102 Descending Seattle Center
Wed 04:12:19 PM 47.1783 -122.4806 North 309 356 10,800 -1,082 Descending Seattle Center
Wed 04:12:48 PM 47.2200 -122.4739 North 297 342 10,200 -984 Descending Seattle Center
Wed 04:13:20 PM 47.2578 -122.4697 North 285 328 9,800 -1,100 Descending Seattle Center
Wed 04:13:48 PM 47.2975 -122.4633 North 278 320 9,100 -1,279 Descending Seattle Center
Wed 04:14:21 PM 47.3372 -122.4592 North 267 307 8,500 -1,082 Descending Seattle Center
Wed 04:14:49 PM 47.3708 -122.4542 North 266 306 8,000 -1,100 Descending Seattle Center
Wed 04:15:21 PM 47.4097 -122.4553 359° North 256 295 7,400 -1,180 Descending Seattle Center
Wed 04:15:50 PM 47.4431 -122.4550 360° North 259 298 6,800 -986 Descending Seattle Center
Wed 04:16:34 PM 47.4919 -122.4561 359° North 254 292 6,200 -800 Descending Seattle Center
Wed 04:16:50 PM 47.5136 -122.4553 North 252 290 6,000 -655 Descending Seattle Center
Wed 04:17:29 PM 47.5519 -122.4558 359° North 231 266 5,600 -787 Descending Seattle Center
Wed 04:17:51 PM 47.5750 -122.4417 23° Northeast 228 262 5,200 -1,111 Descending Seattle Center
Wed 04:18:23 PM 47.6086 -122.4247 19° North 225 259 4,600 -1,000 Descending Seattle Center
Wed 04:18:51 PM 47.6311 -122.4003 36° Northeast 228 262 4,200 -876 Descending Seattle Center
Wed 04:19:52 PM 47.6183 -122.3247 104° East 203 234 3,300 -849 Descending Seattle Center
Wed 04:20:37 PM 47.5842 -122.3103 164° South 167 192 2,700 -787 Descending Seattle Center
Wed 04:20:53 PM 47.5731 -122.3103 180° South 178 205 2,500 -689 Descending Seattle Center
Wed 04:21:38 PM 47.5372 -122.3097 179° South 161 185 2,000 -700 Descending Seattle Center
Wed 04:21:53 PM 47.5275 -122.3108 184° South 167 192 1,800 -889 Descending Seattle Center
Wed 04:22:32 PM 47.4978 -122.3119 181° South 153 176 1,200 -787 Descending Seattle Center
Wed 04:22:54 PM 47.4856 -122.3106 176° South 152 175 1,000 -585 Descending Seattle Center
Wed 04:23:54 PM 47.4456 -122.3131 182° South 147 169 400 -600 Descending Seattle Center
Wed 04:25:00 PM 47.4499 -122.3118 176° South  Level Estimated

Login

Don't have an account? Register now (free) for customized features, flight alerts, and more!